Princes Risborough, United Kingdom
Current Conditions -  °F | °C
As of 6:50 PM on Friday 21 Nov 2014 (Local Time) from EGUB Reporting Station
Overcast Overcast  
Wind Chill: 44°   Ceiling: 700
Heat Index: 46°   Visibility: 3mi
Dew Point: 45°   Wind: 6mph
Humidity: 93%   Direction: 100°E
Pressure: 29.91"   Gusts: NA
Location:  51.73°N, 0.83°W
Report Text: EGUB 211850Z AUTO 10005KT 4900 // OVC007/// 08/07 Q1013
Loading
Personal Weather Stations






























Interactive Weather Map New forecast layout! Learn more

10-Day Weather Forecast

Advertisements
Track Severe Weather on mobile